Time;durP1;ratioP1;P1;durP2;ratioP2;P2;SDS_P1;SDS_P2;PMS_P1;PMS_P2;Temp;Humidity;BMP_temperature;BMP_pressure;BME280_temperature;BME280_humidity;BME280_pressure;Samples;Min_cycle;Max_cycle;Signal;HPM_P1;HPM_P2
2021/07/05 00:01:55;;;;;;;14.60;13.50;;;14.40;85.30;;;;;;4996291;29;20515;-69
2021/07/05 00:04:27;;;;;;;14.73;13.63;;;14.30;86.00;;;;;;4983182;29;20050;-69
2021/07/05 00:06:59;;;;;;;15.38;14.10;;;14.40;85.60;;;;;;4982714;29;20051;-71
2021/07/05 00:09:32;;;;;;;14.80;13.70;;;14.40;85.90;;;;;;4983403;29;20299;-70
2021/07/05 00:12:06;;;;;;;15.20;14.00;;;14.40;85.80;;;;;;4981755;29;20130;-70
2021/07/05 00:14:38;;;;;;;14.90;13.80;;;14.40;86.20;;;;;;4982458;29;20069;-70
2021/07/05 00:17:10;;;;;;;14.98;13.88;;;14.40;86.10;;;;;;4980397;29;20133;-69
2021/07/05 00:19:42;;;;;;;15.25;13.93;;;14.40;85.90;;;;;;4982895;29;20080;-69
2021/07/05 00:22:14;;;;;;;15.38;14.18;;;14.50;85.80;;;;;;4981464;29;20127;-69
2021/07/05 00:24:46;;;;;;;14.77;13.68;;;14.50;85.70;;;;;;4982095;29;20140;-69
2021/07/05 00:27:18;;;;;;;15.07;13.88;;;14.60;85.60;;;;;;4995742;29;20894;-69
2021/07/05 00:29:50;;;;;;;14.95;13.85;;;14.60;85.50;;;;;;4982895;29;20606;-69
2021/07/05 00:32:22;;;;;;;15.38;14.18;;;14.60;85.50;;;;;;4981722;29;20563;-69
2021/07/05 00:34:54;;;;;;;15.07;13.85;;;14.60;85.60;;;;;;4981919;29;20060;-70
2021/07/05 00:37:26;;;;;;;14.73;13.63;;;14.60;85.70;;;;;;4995290;29;20053;-69
2021/07/05 00:39:58;;;;;;;14.60;13.50;;;14.60;85.90;;;;;;4983100;29;21071;-69
2021/07/05 00:42:30;;;;;;;14.88;13.77;;;14.60;85.80;;;;;;4982127;29;20054;-70
2021/07/05 00:45:06;;;;;;;14.63;13.52;;;14.60;85.80;;;;;;4982514;29;20064;-69
2021/07/05 00:47:38;;;;;;;15.15;14.05;;;14.60;86.10;;;;;;4982177;29;20124;-69
2021/07/05 00:50:12;;;;;;;15.23;14.10;;;14.60;86.80;;;;;;4982952;29;20594;-69
2021/07/05 00:52:45;;;;;;;15.20;14.10;;;14.50;86.00;;;;;;4982444;29;20739;-68
2021/07/05 00:55:18;;;;;;;15.15;14.05;;;14.60;85.80;;;;;;4979116;29;20162;-68
2021/07/05 00:57:50;;;;;;;15.15;13.95;;;14.60;85.80;;;;;;4979977;29;20088;-68
2021/07/05 01:00:24;;;;;;;15.18;14.07;;;14.60;85.80;;;;;;4981345;29;20595;-68
2021/07/05 01:02:56;;;;;;;15.50;14.30;;;14.70;85.70;;;;;;4981927;29;20051;-68
2021/07/05 01:05:29;;;;;;;15.45;14.15;;;14.60;85.50;;;;;;4979514;29;20074;-68
2021/07/05 01:08:01;;;;;;;15.95;14.65;;;14.60;85.90;;;;;;4981051;29;20137;-69
2021/07/05 01:10:33;;;;;;;15.25;14.15;;;14.70;86.10;;;;;;4981247;29;20626;-68
2021/07/05 01:13:05;;;;;;;15.18;13.88;;;14.50;86.00;;;;;;4983072;29;20524;-68
2021/07/05 01:15:37;;;;;;;14.98;13.88;;;14.60;85.90;;;;;;4981229;29;20042;-68
2021/07/05 01:18:10;;;;;;;15.30;14.20;;;14.50;86.30;;;;;;4982519;29;20064;-69
2021/07/05 01:20:42;;;;;;;15.07;13.88;;;14.50;86.30;;;;;;4981159;29;20058;-69
2021/07/05 01:23:14;;;;;;;15.50;14.10;;;14.50;86.30;;;;;;4982124;29;20471;-69
2021/07/05 01:25:46;;;;;;;15.00;13.80;;;14.60;86.30;;;;;;4981293;29;20046;-68
2021/07/05 01:28:18;;;;;;;15.23;14.13;;;14.50;86.30;;;;;;4981567;29;20050;-68
2021/07/05 01:30:51;;;;;;;15.65;14.55;;;14.50;86.60;;;;;;4980841;29;20490;-70
2021/07/05 01:33:23;;;;;;;15.88;14.68;;;14.50;86.50;;;;;;4981604;29;20076;-68
2021/07/05 01:35:55;;;;;;;16.60;15.25;;;14.50;86.30;;;;;;4981208;29;20601;-69
2021/07/05 01:38:27;;;;;;;16.38;15.18;;;14.60;86.30;;;;;;4981060;29;20538;-68
2021/07/05 01:41:02;;;;;;;16.15;14.77;;;14.60;86.30;;;;;;4980067;29;20074;-68
2021/07/05 01:43:34;;;;;;;16.20;15.00;;;14.60;86.10;;;;;;4981742;29;20053;-70
2021/07/05 01:46:06;;;;;;;16.13;14.93;;;14.60;86.20;;;;;;4978973;29;20137;-71
2021/07/05 01:48:39;;;;;;;15.70;14.40;;;14.60;86.50;;;;;;4980849;29;20054;-69
2021/07/05 01:51:11;;;;;;;15.98;14.68;;;14.60;86.70;;;;;;4980382;29;20804;-68
2021/07/05 01:53:43;;;;;;;16.33;15.05;;;14.50;86.30;;;;;;4982022;29;20061;-69
2021/07/05 01:56:16;;;;;;;15.70;14.60;;;14.50;86.40;;;;;;4980819;29;20034;-70
2021/07/05 01:58:48;;;;;;;16.00;14.80;;;14.50;86.40;;;;;;4981618;29;20046;-68
2021/07/05 02:01:20;;;;;;;16.55;15.25;;;14.60;86.20;;;;;;4981205;29;20054;-69
2021/07/05 02:03:52;;;;;;;16.55;15.10;;;14.60;86.00;;;;;;4981549;29;20051;-69
2021/07/05 02:06:24;;;;;;;15.60;14.43;;;14.50;86.20;;;;;;4979826;29;20078;-70
2021/07/05 02:08:56;;;;;;;15.82;14.63;;;14.50;86.30;;;;;;4981344;29;20535;-69
2021/07/05 02:11:28;;;;;;;15.50;14.40;;;14.50;86.50;;;;;;4993514;29;20050;-69
2021/07/05 02:14:02;;;;;;;15.85;14.65;;;14.50;86.50;;;;;;4980608;29;20050;-69
2021/07/05 02:16:35;;;;;;;16.05;14.80;;;14.40;86.10;;;;;;4980468;29;20138;-69
2021/07/05 02:19:07;;;;;;;15.85;14.65;;;14.50;86.20;;;;;;4981298;29;20138;-69
2021/07/05 02:21:38;;;;;;;16.10;14.90;;;14.50;86.20;;;;;;4980372;29;20139;-69
2021/07/05 02:24:10;;;;;;;15.82;14.63;;;14.40;85.90;;;;;;4994084;29;20711;-70
2021/07/05 02:26:43;;;;;;;15.90;14.60;;;14.40;86.20;;;;;;4980829;29;20135;-70
2021/07/05 02:29:15;;;;;;;15.90;14.60;;;14.40;86.30;;;;;;4979616;29;20134;-69
2021/07/05 02:31:46;;;;;;;16.70;15.25;;;14.30;86.00;;;;;;4978233;29;20070;-69
2021/07/05 02:34:19;;;;;;;16.52;15.23;;;14.30;86.10;;;;;;4978203;29;20259;-69
2021/07/05 02:36:51;;;;;;;15.93;14.73;;;14.30;86.20;;;;;;4977920;29;20039;-70
2021/07/05 02:39:22;;;;;;;16.00;14.70;;;14.30;86.20;;;;;;4981220;29;20480;-70
2021/07/05 02:41:54;;;;;;;16.38;15.10;;;14.30;85.90;;;;;;4981063;29;20058;-70
2021/07/05 02:44:26;;;;;;;16.08;14.70;;;14.30;85.70;;;;;;4980869;29;20131;-69
2021/07/05 02:46:58;;;;;;;16.60;15.30;;;14.30;85.60;;;;;;4979766;29;20134;-69
2021/07/05 02:49:30;;;;;;;16.25;15.02;;;14.30;85.50;;;;;;4995045;29;20051;-70
2021/07/05 02:52:03;;;;;;;16.27;14.90;;;14.30;85.40;;;;;;4982918;29;20054;-70
2021/07/05 02:54:39;;;;;;;16.42;14.98;;;14.30;85.30;;;;;;4983648;29;20125;-69
2021/07/05 02:57:28;;;;;;;16.40;15.10;;;14.20;85.60;;;;;;4984223;29;20503;-69
2021/07/05 03:00:21;;;;;;;15.98;14.68;;;14.20;85.40;;;;;;4995960;29;20075;-70
2021/07/05 03:02:53;;;;;;;16.30;15.10;;;14.20;85.30;;;;;;4984258;29;20109;-69
2021/07/05 03:05:27;;;;;;;16.23;15.02;;;14.20;85.40;;;;;;4982420;29;20129;-70
2021/07/05 03:08:00;;;;;;;16.05;14.85;;;14.20;85.50;;;;;;4983620;29;20050;-69
2021/07/05 03:10:35;;;;;;;16.45;15.10;;;14.10;85.50;;;;;;4984391;29;20160;-69
2021/07/05 03:13:09;;;;;;;15.93;14.63;;;14.10;85.30;;;;;;4983631;29;20495;-71
2021/07/05 03:15:42;;;;;;;16.20;14.80;;;14.10;85.40;;;;;;4982207;29;20052;-71
2021/07/05 03:18:14;;;;;;;15.95;14.63;;;14.10;85.40;;;;;;4983320;29;20414;-69
2021/07/05 03:20:48;;;;;;;15.63;14.32;;;14.10;85.50;;;;;;4983093;29;20054;-70
2021/07/05 03:23:21;;;;;;;15.75;14.55;;;14.00;86.00;;;;;;4981188;29;20155;-70
2021/07/05 03:25:54;;;;;;;15.68;14.48;;;14.00;85.50;;;;;;4982054;29;20154;-69
2021/07/05 03:28:26;;;;;;;15.52;14.30;;;14.00;85.40;;;;;;4980900;29;20129;-70
2021/07/05 03:30:58;;;;;;;16.17;14.77;;;14.00;85.30;;;;;;4982344;29;20890;-70
2021/07/05 03:33:29;;;;;;;15.88;14.60;;;14.00;86.20;;;;;;4983891;29;20131;-69
2021/07/05 03:36:02;;;;;;;15.35;14.10;;;13.90;85.40;;;;;;4983160;29;20507;-69
2021/07/05 03:38:34;;;;;;;15.75;14.55;;;13.90;85.70;;;;;;4997697;29;20869;-70
2021/07/05 03:41:06;;;;;;;15.80;14.60;;;13.80;86.00;;;;;;4982493;29;20054;-71
2021/07/05 03:43:37;;;;;;;16.00;14.70;;;13.80;86.10;;;;;;4984286;29;20091;-70
2021/07/05 03:46:09;;;;;;;15.75;14.45;;;13.80;86.00;;;;;;4983112;29;20050;-69
2021/07/05 03:48:41;;;;;;;15.98;14.68;;;13.80;86.20;;;;;;4982386;29;20208;-69
2021/07/05 03:51:13;;;;;;;15.27;14.18;;;13.80;86.00;;;;;;4982634;29;20078;-70
2021/07/05 03:53:45;;;;;;;15.52;14.32;;;13.90;86.00;;;;;;4983696;29;20103;-69
2021/07/05 03:56:17;;;;;;;15.50;14.40;;;13.90;85.90;;;;;;4983252;29;20050;-68
2021/07/05 03:58:50;;;;;;;15.77;14.55;;;13.90;85.50;;;;;;4997352;29;20515;-68
2021/07/05 04:01:22;;;;;;;16.15;14.95;;;13.90;85.20;;;;;;4981699;29;20860;-69
2021/07/05 04:03:54;;;;;;;16.00;14.80;;;13.90;85.50;;;;;;4982381;29;20056;-68
2021/07/05 04:06:26;;;;;;;16.17;14.98;;;13.90;85.70;;;;;;4990888;29;20127;-69
2021/07/05 04:09:00;;;;;;;15.45;14.35;;;14.00;85.60;;;;;;4983882;29;20103;-69
2021/07/05 04:11:33;;;;;;;15.80;14.48;;;14.00;85.30;;;;;;4982496;29;20043;-69
2021/07/05 04:14:05;;;;;;;16.10;14.88;;;14.00;85.70;;;;;;4982730;29;20070;-69
2021/07/05 04:16:37;;;;;;;16.08;14.88;;;14.00;86.00;;;;;;4982921;29;20488;-69
2021/07/05 04:19:09;;;;;;;16.17;14.98;;;14.10;86.10;;;;;;4984339;29;20050;-70
2021/07/05 04:21:43;;;;;;;15.98;14.80;;;14.10;86.50;;;;;;4982772;29;20671;-69
2021/07/05 04:24:15;;;;;;;16.38;15.18;;;14.10;86.50;;;;;;4982524;29;20142;-69
2021/07/05 04:26:48;;;;;;;16.05;14.73;;;14.10;86.70;;;;;;4983273;29;20138;-69
2021/07/05 04:29:20;;;;;;;16.10;14.90;;;14.00;86.80;;;;;;4982095;29;20117;-69
2021/07/05 04:31:52;;;;;;;16.30;15.10;;;14.10;86.50;;;;;;4983476;29;20133;-69
2021/07/05 04:34:44;;;;;;;15.90;14.60;;;14.00;86.50;;;;;;4983300;29;20046;-69
2021/07/05 04:37:16;;;;;;;15.70;14.50;;;14.00;85.80;;;;;;4995802;29;20851;-68
2021/07/05 04:39:48;;;;;;;15.63;14.43;;;14.00;86.20;;;;;;5439357;24;20574;-68
2021/07/05 04:42:20;;;;;;;15.65;14.45;;;14.10;86.10;;;;;;4992185;29;20058;-69
2021/07/05 04:44:52;;;;;;;15.93;14.73;;;14.10;85.80;;;;;;4994533;29;20103;-69
2021/07/05 04:47:24;;;;;;;15.98;14.60;;;14.10;85.30;;;;;;4991700;29;20082;-68
2021/07/05 04:49:56;;;;;;;15.65;14.55;;;14.00;85.10;;;;;;4995865;29;20534;-68
2021/07/05 04:52:28;;;;;;;15.52;14.38;;;14.00;85.00;;;;;;4991703;29;20043;-68
2021/07/05 04:55:00;;;;;;;15.45;14.35;;;14.00;85.00;;;;;;4995921;29;20053;-68
2021/07/05 04:57:32;;;;;;;15.40;14.25;;;14.00;84.90;;;;;;4991848;29;20403;-68
2021/07/05 05:00:08;;;;;;;15.80;14.60;;;14.10;85.10;;;;;;4995968;29;20134;-68
2021/07/05 05:02:41;;;;;;;15.75;14.57;;;14.30;85.00;;;;;;4993607;29;20073;-69
2021/07/05 05:05:14;;;;;;;16.13;14.90;;;14.40;83.50;;;;;;4993041;29;20041;-70
2021/07/05 05:07:46;;;;;;;15.63;14.52;;;14.60;83.80;;;;;;5007035;29;20054;-69
2021/07/05 05:10:19;;;;;;;16.00;14.80;;;14.80;83.60;;;;;;4992622;29;20486;-69
2021/07/05 05:12:52;;;;;;;16.75;15.25;;;14.80;83.20;;;;;;4991450;29;20499;-69
2021/07/05 05:15:24;;;;;;;16.10;14.90;;;14.90;83.20;;;;;;4991641;29;20419;-69
2021/07/05 05:17:56;;;;;;;16.48;15.15;;;14.90;83.70;;;;;;4992665;29;20156;-70
2021/07/05 05:20:28;;;;;;;16.55;15.20;;;14.80;83.50;;;;;;4988599;29;20121;-70
2021/07/05 05:23:00;;;;;;;16.38;15.18;;;14.80;83.50;;;;;;4989959;29;20121;-70
2021/07/05 05:25:32;;;;;;;16.15;14.85;;;14.80;84.00;;;;;;4988874;29;20066;-70
2021/07/05 05:28:05;;;;;;;16.15;14.95;;;14.80;83.90;;;;;;4991021;29;20133;-69
2021/07/05 05:30:37;;;;;;;16.23;15.02;;;14.90;84.30;;;;;;4988037;29;21830;-68
2021/07/05 05:33:09;;;;;;;16.50;15.30;;;14.90;84.40;;;;;;4990661;29;20076;-68
2021/07/05 05:35:40;;;;;;;16.52;15.23;;;14.80;84.90;;;;;;4988079;29;20471;-68
2021/07/05 05:38:12;;;;;;;16.50;15.20;;;14.90;85.00;;;;;;4992429;29;20046;-67
2021/07/05 05:40:44;;;;;;;16.02;14.93;;;14.90;84.70;;;;;;4993885;29;20463;-68
2021/07/05 05:43:16;;;;;;;16.33;15.13;;;14.90;84.30;;;;;;4992069;29;20077;-68
2021/07/05 05:45:48;;;;;;;16.60;15.40;;;14.90;84.20;;;;;;4992091;29;20099;-68
2021/07/05 05:48:20;;;;;;;16.20;15.10;;;15.00;84.00;;;;;;4992339;29;20054;-67
2021/07/05 05:50:52;;;;;;;16.65;15.35;;;15.10;83.30;;;;;;4993009;29;20638;-67
2021/07/05 05:53:24;;;;;;;16.38;15.18;;;15.10;83.10;;;;;;4991728;29;20526;-67
2021/07/05 05:55:56;;;;;;;16.60;15.40;;;15.10;82.90;;;;;;4990368;29;20083;-67
2021/07/05 05:58:29;;;;;;;16.15;14.95;;;15.10;84.10;;;;;;4991605;29;20125;-69
2021/07/05 06:01:01;;;;;;;16.10;14.95;;;15.30;82.60;;;;;;4989664;29;20123;-69
2021/07/05 06:03:33;;;;;;;15.82;14.63;;;15.40;82.00;;;;;;4992905;29;20053;-69
2021/07/05 06:06:05;;;;;;;15.93;14.82;;;15.50;81.30;;;;;;4990974;29;20133;-70
2021/07/05 06:08:37;;;;;;;15.90;14.80;;;15.70;81.60;;;;;;4991676;29;20128;-70
2021/07/05 06:11:08;;;;;;;16.20;15.00;;;15.90;81.00;;;;;;4988656;29;20153;-70
2021/07/05 06:13:43;;;;;;;15.45;14.15;;;16.10;80.50;;;;;;4991927;29;20970;-69
2021/07/05 06:16:16;;;;;;;16.50;15.10;;;16.10;78.70;;;;;;4990127;29;20050;-70
2021/07/05 06:18:48;;;;;;;16.60;15.40;;;16.10;77.30;;;;;;4992121;29;20056;-69
2021/07/05 06:21:21;;;;;;;16.30;15.00;;;16.30;78.00;;;;;;4991646;29;20151;-69
2021/07/05 06:23:54;;;;;;;16.40;15.10;;;16.60;78.10;;;;;;4993184;29;20077;-69
2021/07/05 06:26:27;;;;;;;16.55;15.35;;;16.80;77.90;;;;;;4993022;29;20078;-70
2021/07/05 06:29:03;;;;;;;16.45;15.25;;;17.00;78.20;;;;;;4995809;29;20076;-70
2021/07/05 06:31:38;;;;;;;16.52;15.32;;;17.20;76.80;;;;;;4996115;29;20500;-69
2021/07/05 06:34:09;;;;;;;16.63;15.43;;;17.30;75.00;;;;;;4996034;29;20038;-69
2021/07/05 06:36:41;;;;;;;16.65;15.45;;;17.30;75.40;;;;;;4994722;29;20660;-69
2021/07/05 06:39:13;;;;;;;16.55;15.35;;;17.40;77.40;;;;;;4995822;29;20475;-70
2021/07/05 06:41:45;;;;;;;17.27;15.88;;;17.30;76.80;;;;;;4993796;29;20050;-69
2021/07/05 06:44:18;;;;;;;16.50;15.30;;;17.40;77.00;;;;;;4996511;29;20046;-69
2021/07/05 06:46:50;;;;;;;15.90;14.77;;;17.30;76.80;;;;;;4993034;29;20817;-69
2021/07/05 06:49:22;;;;;;;16.10;14.90;;;17.40;75.00;;;;;;5000095;29;20042;-69
2021/07/05 06:51:55;;;;;;;16.77;15.57;;;17.40;77.70;;;;;;5010457;29;20055;-69
2021/07/05 06:54:27;;;;;;;16.20;15.10;;;17.40;76.70;;;;;;4993515;29;20070;-69
2021/07/05 06:56:59;;;;;;;15.68;14.57;;;17.40;77.20;;;;;;4994522;29;20146;-69
2021/07/05 06:59:31;;;;;;;16.13;14.93;;;17.40;76.00;;;;;;4994543;29;20050;-69
2021/07/05 07:02:03;;;;;;;15.45;14.35;;;17.40;79.20;;;;;;4995693;29;20598;-70
2021/07/05 07:04:35;;;;;;;16.08;14.90;;;17.50;79.80;;;;;;4993719;29;20052;-70
2021/07/05 07:07:07;;;;;;;16.05;14.93;;;17.50;78.20;;;;;;4994036;29;20137;-69
2021/07/05 07:09:39;;;;;;;16.45;15.20;;;17.50;77.60;;;;;;4990455;29;20053;-69
2021/07/05 07:12:11;;;;;;;16.65;15.25;;;17.50;78.00;;;;;;4995060;29;20137;-69
2021/07/05 07:14:43;;;;;;;16.05;14.85;;;17.40;76.20;;;;;;4992724;29;20138;-69
2021/07/05 07:17:29;;;;;;;16.42;15.23;;;17.40;77.30;;;;;;4995138;29;20121;-71
2021/07/05 07:20:01;;;;;;;16.70;15.40;;;17.50;76.40;;;;;;4994499;29;20106;-70
2021/07/05 07:22:37;;;;;;;16.77;15.57;;;17.50;77.50;;;;;;4993317;29;20158;-69
2021/07/05 07:25:11;;;;;;;16.67;15.27;;;17.50;77.80;;;;;;4992830;29;20050;-71
2021/07/05 07:27:44;;;;;;;16.17;14.98;;;17.60;78.10;;;;;;4996413;29;20157;-69
2021/07/05 07:30:17;;;;;;;18.67;15.18;;;17.70;77.70;;;;;;4994839;29;20042;-69
2021/07/05 07:32:49;;;;;;;16.40;15.07;;;17.80;78.80;;;;;;4995522;29;20142;-69
2021/07/05 07:35:21;;;;;;;17.20;15.65;;;18.00;78.30;;;;;;4994977;29;20554;-69
2021/07/05 07:37:54;;;;;;;16.50;15.20;;;18.00;76.50;;;;;;4993807;29;20069;-70
2021/07/05 07:40:29;;;;;;;16.75;15.50;;;18.20;78.60;;;;;;4992426;29;20114;-69
2021/07/05 07:43:00;;;;;;;16.90;15.60;;;18.20;77.60;;;;;;4996549;29;20086;-70
2021/07/05 07:45:33;;;;;;;16.67;15.38;;;18.30;78.30;;;;;;4992245;29;20062;-70
2021/07/05 07:48:05;;;;;;;17.02;15.73;;;18.40;75.60;;;;;;5009339;29;20129;-69
2021/07/05 07:50:36;;;;;;;17.30;16.00;;;18.50;75.10;;;;;;4994544;29;20057;-70
2021/07/05 07:53:08;;;;;;;17.13;15.70;;;18.60;77.10;;;;;;5010148;29;20078;-69
2021/07/05 07:55:40;;;;;;;16.67;15.40;;;18.70;73.00;;;;;;4995697;29;20244;-69
2021/07/05 07:58:12;;;;;;;17.00;15.80;;;18.70;72.90;;;;;;4993135;29;20082;-69
2021/07/05 08:00:44;;;;;;;16.67;15.48;;;18.70;75.00;;;;;;4993789;29;20534;-69
2021/07/05 08:03:16;;;;;;;17.05;15.80;;;18.70;73.50;;;;;;4993790;29;20074;-69
2021/07/05 08:05:48;;;;;;;16.80;15.60;;;18.70;74.50;;;;;;4992996;29;20539;-69
2021/07/05 08:08:21;;;;;;;16.42;15.23;;;18.80;73.70;;;;;;4994853;29;20812;-69
2021/07/05 08:10:53;;;;;;;17.13;15.82;;;18.80;74.50;;;;;;4995007;29;20140;-69
2021/07/05 08:13:25;;;;;;;16.95;15.75;;;18.80;73.40;;;;;;4992342;29;20523;-69
2021/07/05 08:15:57;;;;;;;16.58;15.38;;;18.80;73.40;;;;;;4992612;29;20087;-69
2021/07/05 08:18:29;;;;;;;17.20;15.93;;;18.90;75.80;;;;;;4993951;29;20345;-69
2021/07/05 08:21:01;;;;;;;16.50;15.30;;;18.90;73.80;;;;;;4992055;29;20089;-70
2021/07/05 08:23:33;;;;;;;16.73;15.52;;;18.90;73.40;;;;;;4994116;29;20042;-69
2021/07/05 08:26:04;;;;;;;16.23;15.02;;;19.00;74.60;;;;;;4994226;29;20981;-70
2021/07/05 08:28:37;;;;;;;16.98;15.60;;;19.00;72.90;;;;;;4994004;29;20060;-69
2021/07/05 08:31:09;;;;;;;16.50;15.30;;;19.10;72.60;;;;;;4994590;29;20057;-71
2021/07/05 08:33:41;;;;;;;16.30;15.10;;;19.10;73.30;;;;;;4992413;29;20081;-70
2021/07/05 08:36:13;;;;;;;16.27;15.07;;;19.20;73.50;;;;;;4994799;29;20054;-69
2021/07/05 08:38:46;;;;;;;16.42;15.23;;;19.30;71.80;;;;;;4995638;29;20054;-69
2021/07/05 08:41:18;;;;;;;16.17;14.98;;;19.30;73.20;;;;;;4993801;29;20082;-69
2021/07/05 08:43:51;;;;;;;16.17;14.98;;;19.40;69.40;;;;;;4994320;29;20153;-69
2021/07/05 08:46:24;;;;;;;16.42;15.23;;;19.50;71.90;;;;;;4994435;29;20073;-69
2021/07/05 08:48:56;;;;;;;16.40;15.10;;;19.50;72.00;;;;;;4992723;29;20189;-70
2021/07/05 08:51:28;;;;;;;16.90;15.60;;;19.50;66.40;;;;;;4993371;29;20065;-69
2021/07/05 08:54:00;;;;;;;16.73;15.52;;;19.40;69.20;;;;;;4992736;29;20046;-69
2021/07/05 08:56:32;;;;;;;16.35;15.15;;;19.50;71.30;;;;;;4991135;29;20053;-70
2021/07/05 08:59:04;;;;;;;16.90;15.60;;;19.50;73.20;;;;;;4998162;29;20070;-70
2021/07/05 09:01:36;;;;;;;16.77;15.43;;;19.60;72.60;;;;;;4992389;29;20159;-70
2021/07/05 09:04:15;;;;;;;16.90;15.57;;;19.70;72.00;;;;;;4993649;29;20046;-70
2021/07/05 09:07:06;;;;;;;16.98;15.77;;;19.80;72.80;;;;;;5010242;29;20137;-69
2021/07/05 09:09:38;;;;;;;16.95;15.55;;;19.80;72.90;;;;;;4991621;29;20080;-70
2021/07/05 09:12:10;;;;;;;17.38;16.08;;;19.80;73.20;;;;;;4992907;29;20050;-69
2021/07/05 09:14:44;;;;;;;17.15;15.75;;;19.80;71.80;;;;;;4991614;29;20054;-69
2021/07/05 09:17:16;;;;;;;17.60;16.20;;;19.80;72.80;;;;;;4994220;29;20109;-70
2021/07/05 09:19:48;;;;;;;17.58;16.25;;;19.80;71.20;;;;;;4993444;29;20054;-69
2021/07/05 09:22:20;;;;;;;17.10;15.73;;;19.80;71.60;;;;;;4991729;29;20050;-70
2021/07/05 09:24:57;;;;;;;16.90;15.70;;;19.80;71.50;;;;;;4990275;29;20077;-70
2021/07/05 09:27:35;;;;;;;17.08;15.77;;;19.90;72.60;;;;;;4992399;29;20141;-70
2021/07/05 09:30:09;;;;;;;16.52;15.32;;;19.90;71.40;;;;;;4998389;29;20104;-70
2021/07/05 09:32:41;;;;;;;17.73;15.98;;;19.90;71.90;;;;;;4994878;29;20070;-70
2021/07/05 09:35:14;;;;;;;16.83;15.57;;;19.90;72.50;;;;;;4987112;29;20315;-70
2021/07/05 09:37:52;;;;;;;16.80;15.48;;;20.00;72.00;;;;;;4994622;29;20468;-70
2021/07/05 09:40:28;;;;;;;17.05;15.75;;;20.00;73.40;;;;;;4991075;29;20522;-68
2021/07/05 09:43:00;;;;;;;16.73;15.43;;;20.00;71.60;;;;;;4994232;29;20049;-69
2021/07/05 09:45:33;;;;;;;16.70;15.40;;;20.00;68.90;;;;;;4991392;29;20165;-69
2021/07/05 09:48:22;;;;;;;17.00;15.35;;;20.00;71.00;;;;;;5006009;29;20054;-69
2021/07/05 09:51:00;;;;;;;16.92;15.63;;;20.00;69.60;;;;;;4993533;29;20082;-70
2021/07/05 09:53:40;;;;;;;16.77;15.57;;;20.00;70.80;;;;;;4994640;29;20128;-69
2021/07/05 09:56:20;;;;;;;16.98;15.77;;;20.00;70.30;;;;;;4989344;29;20145;-69
2021/07/05 09:58:57;;;;;;;16.55;15.25;;;20.10;69.70;;;;;;4990274;29;20483;-70
2021/07/05 10:01:38;;;;;;;16.95;15.75;;;20.10;70.60;;;;;;4997774;29;20057;-69
2021/07/05 10:04:33;;;;;;;16.90;15.60;;;20.20;71.30;;;;;;5004936;29;20050;-69
2021/07/05 10:07:06;;;;;;;17.13;15.90;;;20.30;70.90;;;;;;4991080;29;20170;-70
2021/07/05 10:09:40;;;;;;;16.85;15.65;;;20.40;69.20;;;;;;4990849;29;20081;-69
2021/07/05 10:12:27;;;;;;;16.85;15.65;;;20.50;71.30;;;;;;4992098;29;20052;-69
2021/07/05 10:15:09;;;;;;;17.08;15.68;;;20.50;69.60;;;;;;4991408;29;20107;-70
2021/07/05 10:17:46;;;;;;;17.23;15.82;;;20.50;69.70;;;;;;4992788;29;20153;-70
2021/07/05 10:20:23;;;;;;;17.40;16.10;;;20.60;69.10;;;;;;4993691;29;20050;-69
2021/07/05 10:22:57;;;;;;;17.20;15.90;;;20.60;69.30;;;;;;4992751;29;20098;-70
2021/07/05 10:25:32;;;;;;;17.27;15.93;;;20.70;69.50;;;;;;4993981;29;20478;-70
2021/07/05 10:28:06;;;;;;;17.08;15.77;;;20.70;69.50;;;;;;4992048;29;20139;-70
2021/07/05 10:30:39;;;;;;;17.52;16.13;;;20.80;69.50;;;;;;4991619;29;20746;-70
2021/07/05 10:33:11;;;;;;;19.05;16.48;;;20.70;70.80;;;;;;4993990;29;20082;-70
2021/07/05 10:35:47;;;;;;;18.23;16.40;;;20.80;68.60;;;;;;4990978;29;20125;-70
2021/07/05 10:38:49;;;;;;;17.48;16.08;;;20.80;69.10;;;;;;5006164;29;20153;-69
2021/07/05 10:41:31;;;;;;;17.48;16.17;;;20.80;69.70;;;;;;4992122;29;20528;-69
2021/07/05 10:44:05;;;;;;;17.30;16.00;;;20.80;69.00;;;;;;4991754;29;20130;-70
2021/07/05 10:46:53;;;;;;;17.55;16.00;;;20.80;67.90;;;;;;4991335;29;20054;-70
2021/07/05 10:49:28;;;;;;;17.83;16.35;;;20.80;69.70;;;;;;4994009;29;20060;-70
2021/07/05 10:52:03;;;;;;;18.15;16.75;;;20.80;69.10;;;;;;4993317;29;20661;-69
2021/07/05 10:54:44;;;;;;;20.02;18.42;;;20.80;68.80;;;;;;4989813;29;20048;-69
2021/07/05 10:57:37;;;;;;;18.23;16.73;;;20.80;66.00;;;;;;4992746;29;20078;-69
2021/07/05 11:00:17;;;;;;;17.60;16.30;;;20.80;65.10;;;;;;4991091;29;20073;-69
2021/07/05 11:02:53;;;;;;;17.10;15.80;;;20.70;67.50;;;;;;4988858;29;20103;-69
2021/07/05 11:05:37;;;;;;;16.85;15.65;;;20.80;68.30;;;;;;4987635;29;20057;-69
2021/07/05 11:08:38;;;;;;;16.27;15.07;;;20.80;68.00;;;;;;4994586;29;20055;-70
2021/07/05 11:11:17;;;;;;;16.88;15.57;;;20.80;67.20;;;;;;4988380;29;20049;-69
2021/07/05 11:14:17;;;;;;;16.33;15.13;;;20.80;66.50;;;;;;4995603;29;20531;-69
2021/07/05 11:17:22;;;;;;;16.10;14.90;;;20.80;66.70;;;;;;4993856;29;20896;-69
2021/07/05 11:20:10;;;;;;;16.25;15.05;;;20.80;68.10;;;;;;4998321;29;20102;-70
2021/07/05 11:22:54;;;;;;;16.60;15.30;;;20.80;67.80;;;;;;4993700;29;20066;-69
2021/07/05 11:25:27;;;;;;;16.77;15.57;;;20.70;67.10;;;;;;4993647;29;20564;-69
2021/07/05 11:28:03;;;;;;;16.55;15.35;;;20.70;68.90;;;;;;4996980;29;20122;-69
2021/07/05 11:30:37;;;;;;;17.00;15.60;;;20.60;69.20;;;;;;4995494;29;20452;-70
2021/07/05 11:33:09;;;;;;;16.67;15.38;;;20.60;68.50;;;;;;4994677;29;20078;-70
2021/07/05 11:35:44;;;;;;;16.23;15.00;;;20.60;69.50;;;;;;4993252;29;20046;-69
2021/07/05 11:38:42;;;;;;;16.50;15.30;;;20.60;68.70;;;;;;4993602;29;20141;-69
2021/07/05 11:41:14;;;;;;;16.42;15.23;;;20.60;68.40;;;;;;4993140;29;20459;-69
2021/07/05 11:44:05;;;;;;;16.60;15.23;;;20.50;68.40;;;;;;4994321;29;20566;-70
2021/07/05 11:46:37;;;;;;;16.05;14.95;;;20.50;69.90;;;;;;4995281;29;20077;-70
2021/07/05 11:49:14;;;;;;;16.42;15.23;;;20.50;69.50;;;;;;4992874;29;20050;-69
2021/07/05 11:51:56;;;;;;;16.45;15.25;;;20.60;70.30;;;;;;4994871;29;20066;-69
2021/07/05 11:54:35;;;;;;;16.48;15.27;;;20.60;71.00;;;;;;4993092;29;20052;-69
2021/07/05 11:57:07;;;;;;;16.30;15.10;;;20.70;69.60;;;;;;4992192;29;20057;-68
2021/07/05 11:59:40;;;;;;;16.42;15.23;;;20.70;68.60;;;;;;4994732;29;20046;-69
2021/07/05 12:02:15;;;;;;;17.33;15.80;;;20.80;68.60;;;;;;4991994;29;20066;-69
2021/07/05 12:04:49;;;;;;;16.70;15.40;;;20.80;68.40;;;;;;4991704;29;20150;-70
2021/07/05 12:07:21;;;;;;;16.65;15.35;;;20.80;67.40;;;;;;4992862;29;20074;-69
2021/07/05 12:09:53;;;;;;;16.70;15.50;;;20.80;68.10;;;;;;4995923;29;20529;-69
2021/07/05 12:12:26;;;;;;;16.80;15.50;;;20.80;68.40;;;;;;4996597;29;20616;-69
2021/07/05 12:15:03;;;;;;;17.00;15.80;;;20.80;68.30;;;;;;4993205;29;20081;-69
2021/07/05 12:17:35;;;;;;;16.70;15.50;;;20.90;68.60;;;;;;4994210;29;20077;-69
2021/07/05 12:20:08;;;;;;;17.10;15.80;;;20.90;68.20;;;;;;4992376;29;20073;-69
2021/07/05 12:22:39;;;;;;;16.85;15.60;;;20.90;67.20;;;;;;4994493;29;20050;-69
2021/07/05 12:25:14;;;;;;;17.23;15.95;;;21.00;68.10;;;;;;4992071;29;20050;-70
2021/07/05 12:27:46;;;;;;;16.80;15.60;;;21.00;67.20;;;;;;4993649;29;20114;-70
2021/07/05 12:30:24;;;;;;;16.35;15.15;;;21.00;68.40;;;;;;4996459;29;20179;-70
2021/07/05 12:32:55;;;;;;;17.02;15.82;;;21.10;66.40;;;;;;5007991;29;20073;-69
2021/07/05 12:35:28;;;;;;;16.88;15.57;;;21.10;66.30;;;;;;4992080;29;21958;-71
2021/07/05 12:38:01;;;;;;;16.90;15.70;;;21.20;66.30;;;;;;4993838;29;20162;-71
2021/07/05 12:40:34;;;;;;;16.67;15.48;;;21.20;67.40;;;;;;4993944;29;20038;-70
2021/07/05 12:43:12;;;;;;;16.70;15.25;;;21.30;66.40;;;;;;4995529;29;20049;-70
2021/07/05 12:45:52;;;;;;;16.70;15.50;;;21.40;66.30;;;;;;5005877;29;20133;-71
2021/07/05 12:48:27;;;;;;;17.27;15.88;;;21.40;67.00;;;;;;4993628;29;20078;-69
2021/07/05 12:51:03;;;;;;;16.90;15.50;;;21.50;67.70;;;;;;4992586;29;20078;-69
2021/07/05 12:53:36;;;;;;;16.92;15.70;;;21.50;67.70;;;;;;4993007;29;20114;-70
2021/07/05 12:56:11;;;;;;;16.38;15.18;;;21.50;67.70;;;;;;4989588;29;20157;-69
2021/07/05 12:58:54;;;;;;;16.70;15.50;;;21.40;67.60;;;;;;4990674;29;20051;-69
2021/07/05 13:01:27;;;;;;;17.52;16.23;;;21.40;66.80;;;;;;4990676;29;20510;-69
2021/07/05 13:04:02;;;;;;;17.35;16.05;;;21.50;66.60;;;;;;4992062;29;20050;-69